Time;durP1;ratioP1;P1;durP2;ratioP2;P2;SDS_P1;SDS_P2;PMS_P1;PMS_P2;Temp;Humidity;BMP_temperature;BMP_pressure;BME280_temperature;BME280_humidity;BME280_pressure;Samples;Min_cycle;Max_cycle;Signal;HPM_P1;HPM_P2
2023/06/11 00:00:26;;;;;;;4.37;3.07;;;17.80;99.90;;;;;;5092715;28;20540;-51
2023/06/11 00:02:54;;;;;;;4.90;3.90;;;17.90;99.90;;;;;;5094763;28;20829;-48
2023/06/11 00:05:21;;;;;;;4.40;3.80;;;18.00;99.90;;;;;;5093916;28;20460;-47
2023/06/11 00:07:49;;;;;;;5.50;3.63;;;17.90;99.90;;;;;;5093698;28;20932;-47
2023/06/11 00:10:16;;;;;;;5.10;4.03;;;17.80;99.90;;;;;;5094480;28;20821;-48
2023/06/11 00:12:43;;;;;;;5.50;3.43;;;17.80;99.90;;;;;;5094292;28;20446;-47
2023/06/11 00:15:10;;;;;;;4.93;3.57;;;17.80;99.90;;;;;;5093529;28;20996;-47
2023/06/11 00:17:39;;;;;;;4.50;3.33;;;17.80;99.90;;;;;;5093849;28;20477;-49
2023/06/11 00:20:11;;;;;;;4.70;3.60;;;17.90;99.90;;;;;;5094018;28;20507;-48
2023/06/11 00:22:39;;;;;;;4.67;3.53;;;17.90;99.90;;;;;;5094271;28;20463;-49
2023/06/11 00:25:07;;;;;;;3.73;2.90;;;17.90;99.90;;;;;;5093807;28;20868;-48
2023/06/11 00:27:34;;;;;;;4.83;3.20;;;17.90;99.90;;;;;;5093469;28;20527;-48
2023/06/11 00:30:04;;;;;;;4.77;3.80;;;17.90;99.90;;;;;;5093988;28;20488;-47
2023/06/11 00:32:31;;;;;;;6.73;4.17;;;17.90;99.90;;;;;;5091606;28;20446;-47
2023/06/11 00:35:01;;;;;;;5.20;3.70;;;17.80;99.90;;;;;;5093107;28;21065;-51
2023/06/11 00:37:30;;;;;;;4.83;3.03;;;17.90;99.90;;;;;;5093397;28;20563;-49
2023/06/11 00:39:57;;;;;;;6.27;3.70;;;17.90;99.90;;;;;;5093810;28;20504;-47
2023/06/11 00:42:24;;;;;;;5.23;3.60;;;17.90;99.90;;;;;;5093483;28;21008;-47
2023/06/11 00:44:51;;;;;;;4.53;3.67;;;17.90;99.90;;;;;;5093372;28;20476;-47
2023/06/11 00:47:18;;;;;;;4.60;3.77;;;17.90;99.90;;;;;;5091557;28;20476;-47
2023/06/11 00:49:46;;;;;;;4.50;3.50;;;17.90;99.90;;;;;;5093388;28;20542;-48
2023/06/11 00:52:18;;;;;;;3.67;2.80;;;17.90;99.90;;;;;;5093211;28;20481;-48
2023/06/11 00:54:45;;;;;;;4.90;4.13;;;17.70;99.90;;;;;;5092847;28;20879;-47
2023/06/11 00:57:12;;;;;;;4.30;3.70;;;17.50;99.90;;;;;;5092966;28;20467;-47
2023/06/11 00:59:40;;;;;;;6.53;3.87;;;17.30;99.90;;;;;;5091434;28;21071;-51
2023/06/11 01:02:15;;;;;;;5.00;3.57;;;17.20;99.90;;;;;;5093632;28;20528;-47
2023/06/11 01:04:43;;;;;;;4.13;3.20;;;17.20;99.90;;;;;;5091520;28;20446;-47
2023/06/11 01:07:13;;;;;;;3.70;2.90;;;17.20;99.90;;;;;;5092693;28;20559;-49
2023/06/11 01:09:42;;;;;;;4.00;3.50;;;17.20;99.90;;;;;;5093780;28;20481;-53
2023/06/11 01:12:10;;;;;;;5.60;4.47;;;17.10;99.90;;;;;;5093232;28;20534;-48
2023/06/11 01:14:38;;;;;;;3.90;3.27;;;16.80;99.90;;;;;;5092849;28;20569;-47
2023/06/11 01:17:08;;;;;;;4.07;3.43;;;;;;;;;;5092452;28;20470;-51
2023/06/11 01:19:54;;;;;;;4.90;3.80;;;16.80;99.90;;;;;;5092893;28;20491;-47
2023/06/11 01:22:30;;;;;;;5.10;3.67;;;16.80;99.90;;;;;;5092765;28;20548;-47
2023/06/11 01:25:17;;;;;;;5.30;3.90;;;16.80;99.90;;;;;;5092294;28;20448;-51
2023/06/11 01:28:03;;;;;;;6.07;3.53;;;16.90;99.90;;;;;;5092389;28;20954;-47
2023/06/11 01:30:33;;;;;;;4.10;3.00;;;16.90;99.90;;;;;;5092741;28;20485;-49
2023/06/11 01:33:02;;;;;;;7.30;3.77;;;16.90;99.90;;;;;;5090847;28;20620;-46
2023/06/11 01:35:29;;;;;;;4.80;3.10;;;16.90;99.90;;;;;;5092058;28;20569;-47
2023/06/11 01:37:57;;;;;;;8.30;3.40;;;16.80;99.90;;;;;;5092294;28;20869;-47
2023/06/11 01:40:25;;;;;;;5.80;3.40;;;16.80;99.90;;;;;;5092815;28;20483;-47
2023/06/11 01:42:53;;;;;;;4.67;3.50;;;16.80;99.90;;;;;;5092315;28;20939;-47
2023/06/11 01:45:23;;;;;;;3.83;3.10;;;16.80;99.90;;;;;;5089968;28;20491;-49
2023/06/11 01:47:50;;;;;;;4.47;3.27;;;16.80;99.90;;;;;;5092304;28;20531;-48
2023/06/11 01:50:17;;;;;;;3.97;3.17;;;16.80;99.90;;;;;;5092640;28;20521;-47
2023/06/11 01:52:44;;;;;;;4.93;3.07;;;16.80;99.90;;;;;;5092487;28;20529;-49
2023/06/11 01:55:12;;;;;;;4.17;3.63;;;16.80;99.90;;;;;;5091754;28;20470;-47
2023/06/11 01:57:40;;;;;;;5.13;3.67;;;16.80;99.90;;;;;;5091653;28;20934;-47
2023/06/11 02:00:10;;;;;;;5.27;3.67;;;16.80;99.90;;;;;;5092106;28;20452;-47
2023/06/11 02:02:39;;;;;;;4.40;3.50;;;16.80;99.90;;;;;;5092210;28;20457;-49
2023/06/11 02:05:07;;;;;;;5.07;3.50;;;16.70;99.90;;;;;;5091561;28;20471;-46
2023/06/11 02:07:34;;;;;;;5.80;3.50;;;16.70;99.90;;;;;;5091485;28;20522;-47
2023/06/11 02:10:01;;;;;;;3.80;3.33;;;16.70;99.90;;;;;;5091782;28;20896;-48
2023/06/11 02:12:27;;;;;;;4.47;3.93;;;16.60;99.90;;;;;;5091798;28;20508;-47
2023/06/11 02:14:54;;;;;;;4.83;3.50;;;16.50;99.90;;;;;;5091120;28;21196;-47
2023/06/11 02:17:21;;;;;;;4.77;3.40;;;16.40;99.90;;;;;;5091414;28;20530;-47
2023/06/11 02:19:50;;;;;;;5.97;3.37;;;16.50;99.90;;;;;;5091964;28;20447;-47
2023/06/11 02:22:17;;;;;;;4.83;3.00;;;16.50;99.90;;;;;;5091834;28;20448;-46
2023/06/11 02:24:44;;;;;;;5.03;3.13;;;16.50;99.90;;;;;;5091249;28;21007;-48
2023/06/11 02:27:11;;;;;;;4.70;3.30;;;16.50;99.90;;;;;;5091222;28;20469;-47
2023/06/11 02:29:38;;;;;;;4.70;3.50;;;16.50;99.90;;;;;;5091737;28;20534;-49
2023/06/11 02:32:05;;;;;;;4.97;3.67;;;;;;;;;;5089789;28;20536;-47
2023/06/11 02:34:32;;;;;;;6.47;3.83;;;16.60;99.90;;;;;;5091128;28;20473;-47
2023/06/11 02:37:00;;;;;;;4.57;3.53;;;16.50;99.90;;;;;;5091049;28;20554;-47
2023/06/11 02:39:27;;;;;;;4.30;3.57;;;16.60;99.90;;;;;;5091737;28;20490;-47
2023/06/11 02:41:54;;;;;;;5.77;3.30;;;16.60;99.90;;;;;;5091274;28;20455;-48
2023/06/11 02:44:21;;;;;;;4.90;3.50;;;16.70;99.90;;;;;;5091072;28;20513;-47
2023/06/11 02:46:48;;;;;;;4.20;3.20;;;16.70;99.90;;;;;;5089369;28;20464;-49
2023/06/11 02:49:15;;;;;;;4.63;3.70;;;16.70;99.90;;;;;;5091168;28;20490;-47
2023/06/11 02:51:42;;;;;;;5.83;4.23;;;16.40;99.90;;;;;;5091573;28;20544;-47
2023/06/11 02:54:10;;;;;;;5.47;4.40;;;16.30;99.90;;;;;;5090863;28;20525;-48
2023/06/11 02:56:37;;;;;;;4.77;4.27;;;16.10;99.90;;;;;;5091114;28;20510;-47
2023/06/11 02:59:05;;;;;;;4.77;4.00;;;16.20;99.90;;;;;;5091232;28;20446;-47
2023/06/11 03:01:32;;;;;;;7.10;4.60;;;16.30;99.90;;;;;;5089442;28;20444;-47
2023/06/11 03:03:59;;;;;;;5.33;3.87;;;16.40;99.90;;;;;;5090747;28;20940;-47
2023/06/11 03:06:26;;;;;;;5.10;4.00;;;16.40;99.90;;;;;;5091497;28;20492;-47
2023/06/11 03:08:53;;;;;;;4.63;3.60;;;16.50;99.90;;;;;;5090572;28;20985;-47
2023/06/11 03:11:21;;;;;;;4.50;3.50;;;16.50;99.90;;;;;;5090986;28;20452;-47
2023/06/11 03:13:48;;;;;;;4.80;3.53;;;16.40;99.90;;;;;;5090720;28;20447;-47
2023/06/11 03:16:15;;;;;;;4.23;3.50;;;16.50;99.90;;;;;;5090572;28;20567;-47
2023/06/11 03:18:43;;;;;;;4.50;3.23;;;16.50;99.90;;;;;;5090830;28;20519;-47
2023/06/11 03:21:10;;;;;;;4.57;3.87;;;16.60;99.90;;;;;;5090862;28;20480;-47
2023/06/11 03:23:37;;;;;;;3.80;3.10;;;16.70;99.90;;;;;;5091193;28;20450;-47
2023/06/11 03:26:04;;;;;;;5.00;4.00;;;16.70;99.90;;;;;;5090637;28;20495;-49
2023/06/11 03:28:33;;;;;;;4.53;3.43;;;;;;;;;;5092834;28;20953;-47
2023/06/11 03:31:00;;;;;;;5.13;3.70;;;;;;;;;;5094772;28;20477;-47
2023/06/11 03:33:27;;;;;;;5.17;4.17;;;;;;;;;;5092817;28;20530;-47
2023/06/11 03:35:54;;;;;;;5.40;4.23;;;;;;;;;;5094635;28;20561;-47
2023/06/11 03:38:22;;;;;;;5.17;3.50;;;;;;;;;;5100596;28;21008;-47
2023/06/11 03:40:49;;;;;;;4.83;4.17;;;;;;;;;;5106662;28;20495;-47
2023/06/11 03:43:16;;;;;;;5.83;4.33;;;;;;;;;;5114979;28;20533;-47
2023/06/11 03:45:45;;;;;;;6.90;4.80;;;;;;;;;;5112685;28;20545;-50
2023/06/11 03:48:12;;;;;;;5.13;4.03;;;;;;;;;;5112820;28;20452;-47
2023/06/11 03:50:39;;;;;;;5.13;3.67;;;;;;;;;;5113575;28;20909;-47
2023/06/11 03:53:06;;;;;;;6.10;4.47;;;;;;;;;;5114984;28;20452;-47
2023/06/11 03:55:34;;;;;;;6.53;4.33;;;;;;;;;;5114157;28;20578;-51
2023/06/11 03:58:01;;;;;;;6.10;4.27;;;;;;;;;;5114326;28;20989;-47
2023/06/11 04:00:31;;;;;;;5.40;3.80;;;;;;;;;;5112402;28;20466;-47
2023/06/11 04:03:00;;;;;;;5.03;4.03;;;;;;;;;;5114661;28;20444;-48
2023/06/11 04:05:27;;;;;;;5.13;3.50;;;;;;;;;;5114739;28;20520;-49
2023/06/11 04:07:55;;;;;;;4.70;3.50;;;;;;;;;;5114113;28;20472;-48
2023/06/11 04:10:22;;;;;;;3.80;3.10;;;;;;;;;;5114721;28;20436;-47
2023/06/11 04:12:50;;;;;;;7.23;4.63;;;;;;;;;;5114718;28;20507;-47
2023/06/11 04:15:17;;;;;;;4.80;3.90;;;;;;;;;;5114172;28;20476;-50
2023/06/11 04:17:44;;;;;;;6.10;4.17;;;;;;;;;;5114056;28;20484;-48
2023/06/11 04:20:13;;;;;;;5.40;3.50;;;;;;;;;;5114324;28;20858;-48
2023/06/11 04:22:40;;;;;;;6.67;4.60;;;;;;;;;;5114045;28;20868;-47
2023/06/11 04:25:08;;;;;;;5.13;4.63;;;;;;;;;;5113831;28;20452;-47
2023/06/11 04:27:36;;;;;;;4.17;3.30;;;;;;;;;;5114138;28;20541;-52
2023/06/11 04:30:04;;;;;;;4.97;3.40;;;;;;;;;;5113468;28;20449;-50
2023/06/11 04:32:34;;;;;;;6.20;5.17;;;;;;;;;;5112687;28;20490;-47
2023/06/11 04:35:02;;;;;;;6.07;3.90;;;;;;;;;;5111867;28;20480;-52
2023/06/11 04:37:38;;;;;;;5.10;4.60;;;;;;;;;;5112403;28;20446;-50
2023/06/11 04:40:09;;;;;;;5.23;3.83;;;;;;;;;;5112436;28;20445;-49
2023/06/11 04:42:38;;;;;;;6.97;4.77;;;;;;;;;;5112520;28;20502;-48
2023/06/11 04:45:07;;;;;;;5.37;3.80;;;;;;;;;;5111188;28;20455;-45
2023/06/11 04:47:35;;;;;;;4.70;3.90;;;;;;;;;;5112071;28;20451;-50
2023/06/11 04:50:04;;;;;;;6.53;3.97;;;;;;;;;;5112330;28;20473;-48
2023/06/11 04:52:34;;;;;;;5.37;3.10;;;;;;;;;;5112626;28;20500;-47
2023/06/11 04:55:03;;;;;;;5.70;4.47;;;;;;;;;;5110791;28;20450;-47
2023/06/11 04:57:32;;;;;;;5.00;3.83;;;;;;;;;;5112197;28;20854;-47
2023/06/11 04:59:59;;;;;;;5.10;3.80;;;;;;;;;;5110335;28;20967;-49
2023/06/11 05:02:28;;;;;;;5.30;4.10;;;;;;;;;;5112194;28;20438;-53
2023/06/11 05:04:57;;;;;;;5.43;3.53;;;;;;;;;;5112782;28;20456;-48
2023/06/11 05:07:25;;;;;;;5.00;4.20;;;;;;;;;;5113461;28;20454;-47
2023/06/11 05:09:53;;;;;;;5.20;4.47;;;;;;;;;;5113567;28;20445;-48
2023/06/11 05:12:21;;;;;;;5.83;4.67;;;;;;;;;;5113488;28;20454;-48
2023/06/11 05:14:48;;;;;;;4.80;4.23;;;;;;;;;;5112986;28;21028;-49
2023/06/11 05:17:16;;;;;;;4.63;3.70;;;;;;;;;;5112866;28;20538;-47
2023/06/11 05:19:44;;;;;;;6.37;4.60;;;;;;;;;;5113328;28;20525;-50
2023/06/11 05:22:11;;;;;;;5.70;4.80;;;;;;;;;;5113490;28;20476;-47
2023/06/11 05:24:41;;;;;;;5.47;4.50;;;;;;;;;;5110774;28;20531;-49
2023/06/11 05:27:10;;;;;;;6.40;4.97;;;;;;;;;;5112902;28;20458;-48
2023/06/11 05:29:37;;;;;;;5.27;4.30;;;;;;;;;;5113331;28;20449;-48
2023/06/11 05:32:05;;;;;;;6.97;5.60;;;;;;;;;;5112828;28;20998;-47
2023/06/11 05:34:33;;;;;;;6.43;5.00;;;;;;;;;;5112637;28;20523;-51
2023/06/11 05:37:00;;;;;;;6.57;4.77;;;;;;;;;;5112487;28;20586;-47
2023/06/11 05:39:28;;;;;;;9.17;6.00;;;;;;;;;;5113114;28;20449;-47
2023/06/11 05:41:55;;;;;;;5.10;4.20;;;;;;;;;;5112566;28;20528;-48
2023/06/11 05:44:24;;;;;;;6.33;4.90;;;;;;;;;;5112435;28;20807;-47
2023/06/11 05:46:51;;;;;;;5.63;4.60;;;;;;;;;;5110897;28;20481;-51
2023/06/11 05:49:18;;;;;;;6.77;5.27;;;;;;;;;;5111106;28;20548;-47
2023/06/11 05:51:45;;;;;;;6.70;5.40;;;;;;;;;;5111962;28;20537;-48
2023/06/11 05:54:12;;;;;;;5.77;5.10;;;;;;;;;;5112407;28;20537;-47
2023/06/11 05:56:40;;;;;;;6.40;4.83;;;;;;;;;;5111361;28;20571;-48
2023/06/11 05:59:07;;;;;;;7.60;6.00;;;;;;;;;;5112147;28;20528;-47
2023/06/11 06:01:36;;;;;;;7.40;5.20;;;;;;;;;;5110482;28;20528;-47
2023/06/11 06:04:04;;;;;;;7.37;6.13;;;;;;;;;;5118611;22;20844;-88
2023/06/11 06:06:32;;;;;;;8.00;6.70;;;;;;;;;;5111555;28;20477;-88
2023/06/11 06:09:00;;;;;;;7.50;6.40;;;;;;;;;;5113039;28;20572;-88
2023/06/11 06:11:27;;;;;;;7.90;5.53;;;;;;;;;;5112828;28;20472;-88
2023/06/11 06:13:54;;;;;;;6.13;4.83;;;;;;;;;;5112651;28;20454;-88
2023/06/11 06:16:22;;;;;;;5.27;3.70;;;;;;;;;;5112740;28;20478;-88
2023/06/11 06:18:50;;;;;;;8.80;4.93;;;;;;;;;;5112546;28;20445;-88
2023/06/11 06:21:18;;;;;;;7.03;5.23;;;;;;;;;;5112484;28;20509;-89
2023/06/11 06:23:45;;;;;;;7.90;6.10;;;;;;;;;;5112587;28;20948;-88
2023/06/11 06:26:13;;;;;;;5.60;3.90;;;;;;;;;;5106355;28;20490;-88
2023/06/11 06:28:40;;;;;;;6.10;4.67;;;;;;;;;;5104569;28;20430;-88
2023/06/11 06:31:12;;;;;;;7.90;4.90;;;;;;;;;;5112758;28;20484;-87
2023/06/11 06:33:39;;;;;;;6.33;5.10;;;;;;;;;;5113442;28;20453;-89
2023/06/11 06:36:08;;;;;;;6.00;5.13;;;;;;;;;;5112340;28;20498;-89
2023/06/11 06:38:36;;;;;;;8.03;6.67;;;;;;;;;;5112245;28;20437;-88
2023/06/11 06:41:03;;;;;;;6.90;5.30;;;;;;;;;;5113576;28;20485;-89
2023/06/11 06:43:30;;;;;;;7.20;5.77;;;;;;;;;;5113920;28;20540;-88
2023/06/11 06:45:58;;;;;;;6.87;5.40;;;;;;;;;;5113442;28;20439;-89
2023/06/11 06:48:25;;;;;;;5.73;4.77;;;;;;;;;;5111078;28;20454;-89
2023/06/11 06:50:53;;;;;;;7.83;6.27;;;;;;;;;;5112693;28;20463;-90
2023/06/11 06:53:21;;;;;;;7.10;5.40;;;;;;;;;;5112696;28;20440;-89
2023/06/11 06:55:49;;;;;;;6.00;4.63;;;;;;;;;;5112288;28;20470;-89
2023/06/11 06:58:17;;;;;;;6.70;4.83;;;;;;;;;;5111986;28;20529;-89
2023/06/11 07:00:45;;;;;;;6.37;5.50;;;;;;;;;;5110839;28;20473;-89
2023/06/11 07:03:14;;;;;;;8.10;4.87;;;;;;;;;;5110142;28;20457;-89
2023/06/11 07:05:41;;;;;;;6.20;5.50;;;;;;;;;;5112029;28;20453;-89
2023/06/11 07:08:11;;;;;;;6.90;5.97;;;;;;;;;;5112424;28;20503;-89
2023/06/11 07:10:42;;;;;;;6.37;5.60;;;;;;;;;;5112862;28;20488;-90
2023/06/11 07:13:10;;;;;;;6.30;5.13;;;;;;;;;;5113195;28;20491;-88
2023/06/11 07:15:37;;;;;;;8.63;5.83;;;;;;;;;;5111237;28;20447;-87
2023/06/11 07:18:04;;;;;;;7.53;5.83;;;;;;;;;;5112187;28;20930;-84
2023/06/11 07:20:32;;;;;;;6.87;4.93;;;;;;;;;;5112068;28;20971;-86
2023/06/11 07:23:00;;;;;;;5.93;5.07;;;;;;;;;;5112072;28;20496;-85
2023/06/11 07:25:28;;;;;;;5.80;4.80;;;;;;;;;;5111867;28;20474;-86
2023/06/11 07:27:56;;;;;;;5.90;4.70;;;;;;;;;;5111596;28;20460;-86
2023/06/11 07:30:24;;;;;;;5.97;4.90;;;;;;;;;;5111916;28;20470;-85
2023/06/11 07:32:53;;;;;;;5.47;4.97;;;;;;;;;;5112118;28;20951;-85
2023/06/11 07:35:20;;;;;;;6.57;4.87;;;;;;;;;;5110856;28;20468;-85
2023/06/11 07:37:47;;;;;;;4.67;4.10;;;;;;;;;;5110637;28;20492;-85
2023/06/11 07:40:15;;;;;;;6.63;4.20;;;18.20;99.90;;;;;;5110507;28;20489;-85
2023/06/11 07:42:43;;;;;;;5.40;4.80;;;18.20;99.90;;;;;;5111221;28;20531;-85
2023/06/11 07:45:12;;;;;;;10.43;6.77;;;18.20;99.90;;;;;;5109809;28;20528;-85
2023/06/11 07:47:39;;;;;;;7.83;6.40;;;18.20;99.90;;;;;;5111012;28;20472;-85
2023/06/11 07:50:07;;;;;;;5.50;4.53;;;18.30;99.90;;;;;;5111551;28;20447;-85
2023/06/11 07:52:34;;;;;;;79.97;47.97;;;18.40;99.90;;;;;;5111147;28;20920;-85
2023/06/11 07:55:01;;;;;;;10.57;7.43;;;18.50;99.90;;;;;;5111326;28;20535;-85
2023/06/11 07:57:28;;;;;;;7.50;5.60;;;18.60;99.90;;;;;;5111104;28;20498;-85
2023/06/11 07:59:56;;;;;;;5.53;4.63;;;18.50;99.90;;;;;;5110542;28;20484;-85
2023/06/11 08:02:24;;;;;;;5.80;4.80;;;18.50;99.90;;;;;;5111152;28;20538;-85
2023/06/11 08:04:51;;;;;;;6.77;5.53;;;18.50;99.90;;;;;;5110086;28;20486;-86
2023/06/11 08:07:19;;;;;;;10.63;4.63;;;18.50;99.90;;;;;;5111348;28;20912;-85
2023/06/11 08:09:45;;;;;;;6.07;4.63;;;18.40;99.90;;;;;;5111500;28;20553;-85
2023/06/11 08:12:12;;;;;;;5.13;4.60;;;18.20;99.90;;;;;;5111297;28;20477;-85
2023/06/11 08:14:39;;;;;;;6.10;4.63;;;18.20;99.90;;;;;;5113606;28;20927;-85
2023/06/11 08:17:08;;;;;;;5.40;4.23;;;18.30;99.90;;;;;;5114692;28;20511;-86
2023/06/11 08:19:36;;;;;;;5.50;4.70;;;18.40;99.90;;;;;;5114746;28;20485;-86
2023/06/11 08:22:03;;;;;;;4.67;4.07;;;18.40;99.90;;;;;;5114538;28;20451;-86
2023/06/11 08:24:31;;;;;;;6.30;5.00;;;18.40;99.90;;;;;;5114112;28;20473;-85
2023/06/11 08:26:58;;;;;;;5.77;4.37;;;18.50;99.90;;;;;;5114533;28;20488;-85
2023/06/11 08:29:25;;;;;;;6.27;5.07;;;18.50;99.90;;;;;;5112713;28;20446;-85
2023/06/11 08:31:52;;;;;;;4.90;4.27;;;18.50;99.90;;;;;;5114462;28;20867;-85
2023/06/11 08:34:19;;;;;;;6.20;5.17;;;18.60;99.90;;;;;;5114399;28;20456;-85
2023/06/11 08:36:47;;;;;;;5.70;4.13;;;18.60;99.90;;;;;;5114374;28;21107;-85
2023/06/11 08:39:14;;;;;;;4.93;4.43;;;18.70;99.90;;;;;;5114788;28;20527;-85
2023/06/11 08:41:41;;;;;;;5.37;4.83;;;18.70;99.90;;;;;;5114592;28;20930;-85
2023/06/11 08:44:08;;;;;;;5.07;3.80;;;18.70;99.90;;;;;;5114369;28;20529;-85
2023/06/11 08:46:36;;;;;;;5.00;4.30;;;18.80;99.90;;;;;;5112973;28;20517;-85
2023/06/11 08:49:06;;;;;;;8.93;4.60;;;19.00;99.90;;;;;;5114048;28;20539;-85
2023/06/11 08:51:37;;;;;;;5.60;4.80;;;19.20;99.90;;;;;;5114413;28;20458;-85
2023/06/11 08:54:07;;;;;;;6.23;4.87;;;19.20;99.90;;;;;;5114097;28;20438;-85
2023/06/11 08:56:34;;;;;;;5.50;4.23;;;19.30;99.90;;;;;;5114381;28;20556;-85
2023/06/11 08:59:03;;;;;;;6.83;4.53;;;19.30;99.90;;;;;;5113821;28;20478;-85
2023/06/11 09:01:31;;;;;;;5.00;4.13;;;19.40;99.90;;;;;;5112540;28;20515;-85
2023/06/11 09:03:58;;;;;;;4.93;3.77;;;19.50;99.90;;;;;;5112399;28;20476;-85
2023/06/11 09:06:24;;;;;;;5.40;4.37;;;19.40;99.90;;;;;;5113589;28;20450;-85
2023/06/11 09:08:59;;;;;;;6.90;4.47;;;19.50;99.90;;;;;;5113494;28;20883;-86
2023/06/11 09:11:33;;;;;;;6.23;4.77;;;19.50;99.90;;;;;;5114008;28;20886;-85
2023/06/11 09:14:00;;;;;;;5.40;4.80;;;19.60;99.90;;;;;;5113815;28;20426;-85
2023/06/11 09:16:27;;;;;;;5.23;3.90;;;19.50;99.90;;;;;;5112957;28;20813;-85
2023/06/11 09:18:55;;;;;;;6.13;4.40;;;19.60;99.90;;;;;;5133066;27;20488;-85
2023/06/11 09:21:25;;;;;;;6.90;5.20;;;19.60;99.90;;;;;;5112842;28;20461;-85
2023/06/11 09:23:52;;;;;;;5.80;5.03;;;19.50;99.90;;;;;;5112749;28;20446;-85
2023/06/11 09:26:19;;;;;;;6.73;4.70;;;19.50;99.90;;;;;;5112253;28;20498;-86
2023/06/11 09:28:50;;;;;;;6.80;5.33;;;19.60;99.90;;;;;;5112914;28;20499;-85
2023/06/11 09:31:19;;;;;;;5.60;4.83;;;19.60;99.90;;;;;;5113429;28;20549;-85
2023/06/11 09:33:46;;;;;;;5.33;4.80;;;19.70;99.90;;;;;;5113811;28;20450;-85
2023/06/11 09:36:13;;;;;;;5.97;5.13;;;19.90;99.90;;;;;;5113251;28;20448;-85
2023/06/11 09:38:40;;;;;;;6.63;5.13;;;20.00;99.90;;;;;;5112833;28;21004;-85
2023/06/11 09:41:07;;;;;;;5.57;4.30;;;20.00;99.90;;;;;;5113414;28;20874;-85
2023/06/11 09:43:35;;;;;;;5.67;4.17;;;20.00;99.90;;;;;;5113268;28;20427;-85
2023/06/11 09:46:03;;;;;;;5.30;4.57;;;20.00;99.90;;;;;;5111207;28;20431;-85
2023/06/11 09:48:30;;;;;;;7.07;5.07;;;20.00;99.90;;;;;;5112972;28;20431;-85
2023/06/11 09:51:00;;;;;;;7.07;4.60;;;20.00;99.90;;;;;;5112861;28;20907;-85
2023/06/11 09:53:28;;;;;;;5.63;5.03;;;20.10;99.90;;;;;;5113088;28;20537;-85
2023/06/11 09:55:56;;;;;;;7.83;4.80;;;20.10;99.90;;;;;;5112663;28;20439;-85
2023/06/11 09:58:24;;;;;;;5.57;4.57;;;20.00;99.90;;;;;;5112369;28;20556;-85
2023/06/11 10:00:52;;;;;;;6.33;4.57;;;20.00;99.90;;;;;;5111439;28;20474;-85
2023/06/11 10:03:20;;;;;;;6.53;4.90;;;20.10;99.90;;;;;;5112674;28;20458;-85
2023/06/11 10:05:48;;;;;;;6.53;5.17;;;20.10;99.90;;;;;;5112330;28;20931;-85
2023/06/11 10:08:20;;;;;;;8.00;5.70;;;20.00;99.90;;;;;;5112553;28;20439;-85
2023/06/11 10:10:52;;;;;;;7.20;6.03;;;20.00;99.90;;;;;;5112917;28;20487;-85
2023/06/11 10:13:28;;;;;;;9.23;5.30;;;20.00;99.90;;;;;;5113124;28;20440;-85
2023/06/11 10:15:55;;;;;;;6.70;5.17;;;19.80;99.90;;;;;;5112184;28;20434;-85
2023/06/11 10:18:25;;;;;;;7.40;4.63;;;19.90;99.90;;;;;;5112094;28;20478;-85
2023/06/11 10:20:53;;;;;;;7.77;5.80;;;20.00;99.90;;;;;;5112414;28;20517;-85
2023/06/11 10:23:21;;;;;;;6.20;4.60;;;20.10;99.90;;;;;;5112525;28;20450;-85
2023/06/11 10:25:54;;;;;;;7.03;4.00;;;20.10;99.90;;;;;;5112003;28;20961;-85
2023/06/11 10:28:34;;;;;;;5.80;4.83;;;20.20;99.90;;;;;;5112187;28;20427;-86
2023/06/11 10:31:01;;;;;;;6.50;5.50;;;20.40;99.90;;;;;;5111536;28;20569;-85
2023/06/11 10:33:37;;;;;;;8.27;6.50;;;20.50;99.90;;;;;;5112130;28;20454;-85
2023/06/11 10:36:05;;;;;;;5.10;4.60;;;20.50;99.90;;;;;;5111911;28;20447;-85
2023/06/11 10:38:37;;;;;;;6.07;5.27;;;20.50;99.90;;;;;;5110643;28;20502;-85
2023/06/11 10:41:04;;;;;;;5.33;4.77;;;20.60;99.90;;;;;;5109671;28;20998;-85
2023/06/11 10:43:32;;;;;;;5.20;4.03;;;20.70;99.90;;;;;;5111198;28;20513;-85
2023/06/11 10:46:03;;;;;;;5.10;3.80;;;20.80;99.90;;;;;;5109299;28;20445;-85
2023/06/11 10:48:30;;;;;;;5.97;4.30;;;20.80;99.90;;;;;;5110564;28;20443;-85
2023/06/11 10:51:07;;;;;;;4.90;4.10;;;20.90;99.90;;;;;;5111295;28;20550;-85
2023/06/11 10:53:39;;;;;;;6.57;5.83;;;20.90;99.90;;;;;;5112289;28;20438;-85
2023/06/11 10:56:07;;;;;;;8.17;6.53;;;20.80;99.90;;;;;;5111957;28;20439;-85
2023/06/11 10:58:35;;;;;;;6.37;4.87;;;20.70;99.90;;;;;;5112083;28;20566;-85
2023/06/11 11:01:04;;;;;;;5.27;4.63;;;20.70;99.90;;;;;;5110462;28;20881;-85
2023/06/11 11:03:32;;;;;;;8.40;6.70;;;20.80;99.90;;;;;;5110597;28;20454;-85
2023/06/11 11:05:59;;;;;;;7.50;5.60;;;21.00;99.90;;;;;;5108531;28;20526;-85
2023/06/11 11:08:27;;;;;;;6.10;4.50;;;21.20;99.90;;;;;;5090190;28;20522;-85
2023/06/11 11:10:55;;;;;;;6.40;5.77;;;21.30;99.90;;;;;;5090585;28;20956;-85
2023/06/11 11:13:22;;;;;;;4.40;3.40;;;21.40;99.90;;;;;;5090930;28;20791;-85
2023/06/11 11:15:50;;;;;;;8.23;6.60;;;21.60;99.90;;;;;;5090834;28;20859;-85
2023/06/11 11:18:18;;;;;;;8.77;5.60;;;21.70;99.90;;;;;;5090792;28;20470;-85
2023/06/11 11:20:45;;;;;;;6.37;5.40;;;21.80;99.90;;;;;;5091401;28;20463;-85
2023/06/11 11:23:12;;;;;;;7.80;5.67;;;21.80;99.90;;;;;;5088851;28;20442;-85
2023/06/11 11:25:42;;;;;;;8.27;6.47;;;21.80;99.90;;;;;;5090374;28;20901;-85
2023/06/11 11:28:11;;;;;;;6.07;5.10;;;21.70;99.90;;;;;;5090761;28;20440;-85
2023/06/11 11:30:39;;;;;;;6.63;5.47;;;21.60;99.90;;;;;;5091035;28;20984;-85
2023/06/11 11:33:06;;;;;;;7.80;6.27;;;21.40;99.90;;;;;;5091618;28;20512;-85
2023/06/11 11:35:33;;;;;;;8.17;4.93;;;21.40;99.90;;;;;;5090624;28;21010;-85
2023/06/11 11:38:00;;;;;;;7.73;5.20;;;21.40;99.90;;;;;;5091140;28;20591;-85
2023/06/11 11:40:29;;;;;;;7.70;5.70;;;21.50;99.90;;;;;;5091484;28;20463;-85
2023/06/11 11:42:58;;;;;;;6.87;5.20;;;21.60;99.90;;;;;;5091400;28;20499;-85
2023/06/11 11:45:35;;;;;;;7.10;6.40;;;21.80;99.90;;;;;;5089168;28;20538;-85
2023/06/11 11:48:02;;;;;;;7.57;4.03;;;22.00;99.90;;;;;;5091164;28;20534;-85
2023/06/11 11:50:31;;;;;;;6.97;5.63;;;22.00;99.90;;;;;;5095339;28;20472;-85
2023/06/11 11:53:05;;;;;;;6.50;4.43;;;22.00;99.90;;;;;;5095544;28;20427;-85
2023/06/11 11:55:34;;;;;;;6.73;5.77;;;22.10;99.90;;;;;;5094638;28;20439;-85
2023/06/11 11:58:07;;;;;;;6.07;4.50;;;22.10;99.90;;;;;;5093204;28;20580;-85
2023/06/11 12:00:35;;;;;;;6.33;5.00;;;22.20;99.90;;;;;;5093600;28;20436;-85
2023/06/11 12:03:08;;;;;;;5.90;4.70;;;22.40;99.90;;;;;;5093679;28;20482;-85
2023/06/11 12:05:35;;;;;;;8.27;5.80;;;22.50;99.90;;;;;;5094355;28;20446;-85
2023/06/11 12:08:03;;;;;;;5.97;3.97;;;22.60;99.90;;;;;;5094314;28;21003;-85
2023/06/11 12:10:29;;;;;;;4.97;4.27;;;22.60;99.90;;;;;;5094699;28;20491;-86
2023/06/11 12:12:56;;;;;;;5.33;4.50;;;22.60;99.90;;;;;;5094282;28;20463;-85
2023/06/11 12:15:25;;;;;;;4.23;3.83;;;22.70;99.90;;;;;;5094446;28;20975;-83
2023/06/11 12:17:52;;;;;;;5.47;4.40;;;22.90;99.90;;;;;;5094733;28;20529;-82
2023/06/11 12:20:20;;;;;;;6.03;4.30;;;22.90;99.90;;;;;;5095148;28;20448;-83
2023/06/11 12:22:47;;;;;;;6.30;3.97;;;23.00;99.90;;;;;;5095217;28;20497;-83
2023/06/11 12:25:15;;;;;;;3.90;3.50;;;23.00;99.90;;;;;;5094483;28;20474;-83
2023/06/11 12:27:43;;;;;;;4.80;3.70;;;23.00;99.90;;;;;;5094233;28;20516;-83
2023/06/11 12:30:11;;;;;;;5.47;4.30;;;23.10;99.90;;;;;;5094958;28;20482;-83
2023/06/11 12:32:40;;;;;;;4.23;3.33;;;23.20;99.90;;;;;;5094597;28;20832;-82
2023/06/11 12:35:08;;;;;;;5.20;4.00;;;23.30;99.90;;;;;;5094086;28;20802;-82
2023/06/11 12:37:36;;;;;;;4.70;3.90;;;23.30;99.90;;;;;;5093632;28;20440;-83
2023/06/11 12:40:04;;;;;;;5.33;3.77;;;23.30;99.90;;;;;;5094411;28;20503;-83
2023/06/11 12:42:32;;;;;;;4.27;3.30;;;23.40;99.90;;;;;;5094234;28;21008;-83
2023/06/11 12:44:59;;;;;;;4.80;3.60;;;23.40;99.90;;;;;;5093935;28;20814;-83
2023/06/11 12:47:26;;;;;;;5.20;4.20;;;23.40;99.90;;;;;;5092740;28;20479;-82
2023/06/11 12:49:54;;;;;;;4.60;3.93;;;23.40;99.90;;;;;;5094188;28;20520;-82
2023/06/11 12:52:21;;;;;;;5.50;3.47;;;23.40;99.90;;;;;;5094201;28;20479;-82
2023/06/11 12:54:48;;;;;;;5.73;3.67;;;23.50;99.90;;;;;;5103470;28;20445;-81
2023/06/11 12:57:16;;;;;;;4.80;3.60;;;23.50;99.90;;;;;;5106620;28;20432;-83
2023/06/11 12:59:43;;;;;;;4.93;3.93;;;23.50;99.90;;;;;;5092295;28;20844;-83
2023/06/11 13:02:11;;;;;;;4.50;4.00;;;23.30;99.90;;;;;;5094129;28;20479;-83
2023/06/11 13:04:38;;;;;;;5.63;3.60;;;23.10;99.90;;;;;;5093564;28;20497;-83
2023/06/11 13:07:07;;;;;;;4.30;3.30;;;23.00;99.90;;;;;;5093471;28;20435;-82
2023/06/11 13:09:33;;;;;;;5.20;3.50;;;23.10;99.90;;;;;;5093427;28;20545;-82
2023/06/11 13:12:01;;;;;;;4.77;3.60;;;23.00;99.90;;;;;;5093419;28;20885;-82
2023/06/11 13:14:27;;;;;;;4.50;3.60;;;22.90;99.90;;;;;;5093091;28;20478;-82
2023/06/11 13:16:55;;;;;;;3.17;2.43;;;22.90;99.90;;;;;;5093193;28;20484;-82
2023/06/11 13:19:22;;;;;;;4.33;3.30;;;22.90;99.90;;;;;;5093251;28;20503;-83
2023/06/11 13:21:49;;;;;;;4.43;3.27;;;22.90;99.90;;;;;;5093531;28;20447;-83
2023/06/11 13:24:17;;;;;;;4.40;3.13;;;22.90;99.90;;;;;;5093059;28;20428;-83